createdAt,value
2023-03-17T00:01:41.825Z,22.03
2023-03-17T00:04:12.589Z,22.53
2023-03-17T00:06:40.315Z,21.63
2023-03-17T00:09:16.205Z,22.30
2023-03-17T00:11:45.855Z,22.03
2023-03-17T00:14:12.695Z,22.53
2023-03-17T00:16:42.322Z,23.73
2023-03-17T00:19:17.226Z,22.40
2023-03-17T00:21:47.180Z,22.37
2023-03-17T00:24:15.178Z,23.17
2023-03-17T00:26:45.266Z,23.47
2023-03-17T00:29:12.072Z,21.83
2023-03-17T00:31:39.562Z,21.47
2023-03-17T00:34:09.572Z,22.00
2023-03-17T00:36:37.463Z,21.10
2023-03-17T00:39:06.077Z,21.50
2023-03-17T00:41:37.723Z,22.73
2023-03-17T00:44:04.884Z,21.63
2023-03-17T00:46:35.940Z,23.17
2023-03-17T00:49:24.003Z,21.17
2023-03-17T00:51:55.517Z,21.23
2023-03-17T00:54:27.028Z,22.00
2023-03-17T00:56:53.952Z,22.10
2023-03-17T00:59:31.757Z,22.17
2023-03-17T01:02:00.670Z,22.03
2023-03-17T01:04:27.755Z,22.77
2023-03-17T01:06:54.544Z,23.27
2023-03-17T01:09:24.145Z,23.00
2023-03-17T01:11:55.098Z,22.60
2023-03-17T01:14:22.618Z,21.13
2023-03-17T01:16:49.707Z,22.37
2023-03-17T01:19:24.187Z,23.30
2023-03-17T01:21:50.927Z,23.57
2023-03-17T01:24:17.792Z,23.47
2023-03-17T01:26:47.042Z,23.47
2023-03-17T01:29:14.330Z,22.63
2023-03-17T01:31:44.264Z,23.97
2023-03-17T01:34:11.584Z,22.90
2023-03-17T01:36:41.391Z,22.67
2023-03-17T01:39:08.148Z,23.93
2023-03-17T01:41:40.104Z,23.67
2023-03-17T01:44:07.324Z,23.97
2023-03-17T01:46:35.367Z,23.67
2023-03-17T01:49:17.416Z,24.50
2023-03-17T01:51:58.947Z,24.03
2023-03-17T01:54:40.795Z,24.27
2023-03-17T01:57:19.114Z,24.93
2023-03-17T01:59:49.536Z,24.80
2023-03-17T02:02:19.093Z,24.70
2023-03-17T02:04:48.016Z,25.30
2023-03-17T02:07:14.811Z,24.67
2023-03-17T02:09:41.735Z,25.73
2023-03-17T02:12:09.277Z,26.80
2023-03-17T02:14:36.515Z,25.50
2023-03-17T02:17:06.010Z,26.57
2023-03-17T02:19:32.772Z,26.07
2023-03-17T02:21:59.919Z,27.83
2023-03-17T02:24:55.802Z,27.37
2023-03-17T02:27:38.619Z,27.67
2023-03-17T02:30:06.792Z,27.60
2023-03-17T02:32:36.501Z,26.70
2023-03-17T02:35:03.739Z,28.47
2023-03-17T02:37:32.927Z,26.17
2023-03-17T02:40:01.840Z,26.30
2023-03-17T02:42:31.496Z,25.97
2023-03-17T02:44:58.238Z,25.77
2023-03-17T02:47:27.724Z,25.93
2023-03-17T02:49:54.478Z,25.43
2023-03-17T02:52:23.774Z,25.57
2023-03-17T02:54:50.816Z,25.87
2023-03-17T02:57:17.607Z,26.10
2023-03-17T02:59:44.473Z,25.93
2023-03-17T03:02:14.293Z,26.57
2023-03-17T03:04:46.307Z,27.60
2023-03-17T03:07:13.039Z,26.23
2023-03-17T03:09:42.463Z,27.53
2023-03-17T03:12:10.113Z,27.03
2023-03-17T03:14:37.552Z,26.80
2023-03-17T03:17:04.556Z,25.33
2023-03-17T03:19:33.545Z,26.73
2023-03-17T03:22:02.527Z,26.87
2023-03-17T03:24:29.272Z,26.00
2023-03-17T03:26:56.500Z,26.27
2023-03-17T03:29:23.271Z,26.50
2023-03-17T03:31:50.067Z,25.63
2023-03-17T03:34:16.831Z,26.73
2023-03-17T03:36:43.631Z,25.93
2023-03-17T03:39:14.358Z,26.37
2023-03-17T03:41:41.375Z,25.90
2023-03-17T03:44:08.238Z,25.23
2023-03-17T03:46:35.056Z,24.93
2023-03-17T03:49:04.127Z,24.97
2023-03-17T03:51:33.344Z,25.53
2023-03-17T03:54:01.408Z,25.43
2023-03-17T03:56:28.168Z,26.33
2023-03-17T03:58:54.940Z,26.10
2023-03-17T04:01:21.762Z,26.73
2023-03-17T04:03:48.574Z,26.03
2023-03-17T04:06:17.913Z,26.10
2023-03-17T04:08:44.715Z,26.37
2023-03-17T04:11:11.571Z,27.80
2023-03-17T04:13:40.728Z,26.23
2023-03-17T04:16:10.011Z,27.03
2023-03-17T04:18:36.988Z,25.20
2023-03-17T04:21:07.122Z,25.03
2023-03-17T04:23:34.191Z,26.57
2023-03-17T04:26:01.512Z,26.40
2023-03-17T04:28:30.752Z,26.23
2023-03-17T04:31:02.202Z,25.57
2023-03-17T04:33:29.145Z,24.57
2023-03-17T04:35:56.709Z,26.67
2023-03-17T04:38:23.617Z,25.33
2023-03-17T04:40:51.042Z,26.00
2023-03-17T04:43:18.191Z,25.50
2023-03-17T04:45:45.010Z,26.57
2023-03-17T04:48:11.800Z,29.43
2023-03-17T04:50:39.140Z,28.60
2023-03-17T04:53:06.824Z,29.13
2023-03-17T04:55:33.675Z,29.83
2023-03-17T04:58:00.754Z,28.87
2023-03-17T05:00:28.127Z,30.30
2023-03-17T05:02:55.010Z,32.30
2023-03-17T05:05:23.965Z,31.90
2023-03-17T05:07:53.053Z,33.27
2023-03-17T05:10:19.841Z,33.07
2023-03-17T05:12:48.869Z,32.83
2023-03-17T05:15:16.016Z,33.37
2023-03-17T05:17:42.794Z,31.70
2023-03-17T05:20:12.770Z,35.07
2023-03-17T05:22:44.199Z,32.10
2023-03-17T05:25:10.968Z,32.47
2023-03-17T05:27:37.834Z,32.60
2023-03-17T05:30:08.394Z,31.53
2023-03-17T05:32:36.506Z,32.27
2023-03-17T05:35:03.789Z,32.53
2023-03-17T05:37:33.206Z,32.90
2023-03-17T05:40:03.068Z,34.40
2023-03-17T05:42:29.843Z,32.27
2023-03-17T05:44:56.664Z,31.17
2023-03-17T05:47:25.898Z,30.70
2023-03-17T05:49:52.759Z,30.57
2023-03-17T05:52:19.568Z,30.73
2023-03-17T05:54:48.989Z,30.20
2023-03-17T05:57:16.397Z,29.80
2023-03-17T05:59:45.521Z,29.47
2023-03-17T06:02:12.522Z,31.40
2023-03-17T06:04:39.562Z,30.30
2023-03-17T06:07:09.581Z,30.03
2023-03-17T06:09:38.867Z,29.00
2023-03-17T06:12:11.422Z,26.87
2023-03-17T06:14:38.234Z,24.10
2023-03-17T06:17:07.403Z,22.90
2023-03-17T06:19:34.287Z,21.57
2023-03-17T06:22:04.021Z,22.13
2023-03-17T06:24:31.302Z,20.30
2023-03-17T06:26:58.108Z,21.30
2023-03-17T06:29:24.961Z,19.90
2023-03-17T06:31:51.800Z,21.00
2023-03-17T06:34:18.792Z,19.77
2023-03-17T06:36:45.619Z,19.00
2023-03-17T06:39:18.138Z,19.13
2023-03-17T06:41:47.494Z,18.03
2023-03-17T06:44:14.271Z,16.73
2023-03-17T06:46:41.541Z,17.70
2023-03-17T06:49:13.466Z,16.40
2023-03-17T06:51:42.811Z,16.73
2023-03-17T06:54:09.724Z,16.47
2023-03-17T06:56:39.275Z,16.23
2023-03-17T06:59:06.113Z,16.13
2023-03-17T07:01:38.232Z,14.70
2023-03-17T07:04:05.597Z,14.50
2023-03-17T07:06:35.084Z,15.60
2023-03-17T07:09:02.546Z,14.03
2023-03-17T07:11:30.784Z,14.40
2023-03-17T07:13:57.600Z,14.90
2023-03-17T07:16:24.563Z,15.70
2023-03-17T07:18:51.370Z,14.40
2023-03-17T07:21:18.356Z,15.07
2023-03-17T07:23:47.865Z,14.27
2023-03-17T07:26:14.642Z,14.83
2023-03-17T07:28:44.673Z,14.20
2023-03-17T07:31:14.939Z,15.30
2023-03-17T07:33:42.099Z,14.87
2023-03-17T07:36:09.165Z,15.20
2023-03-17T07:38:39.019Z,14.97
2023-03-17T07:41:09.888Z,15.90
2023-03-17T07:43:37.657Z,14.83
2023-03-17T07:46:06.315Z,16.67
2023-03-17T07:48:33.522Z,16.00
2023-03-17T07:51:02.667Z,15.90
2023-03-17T07:53:29.802Z,16.20
2023-03-17T07:55:58.901Z,16.37
2023-03-17T07:58:25.788Z,16.70
2023-03-17T08:00:52.670Z,16.33
2023-03-17T08:03:19.588Z,15.43
2023-03-17T08:05:50.678Z,16.10
2023-03-17T08:08:17.477Z,15.30
2023-03-17T08:10:46.828Z,15.63
2023-03-17T08:13:14.314Z,14.80
2023-03-17T08:15:41.498Z,13.83
2023-03-17T08:18:10.478Z,12.90
2023-03-17T08:20:37.959Z,14.60
2023-03-17T08:23:04.905Z,13.77
2023-03-17T08:25:32.147Z,11.70
2023-03-17T08:27:59.262Z,11.13
2023-03-17T08:30:26.115Z,9.60
2023-03-17T08:32:54.708Z,9.67
2023-03-17T08:35:21.595Z,9.13
2023-03-17T08:37:48.411Z,8.50
2023-03-17T08:40:19.822Z,9.37
2023-03-17T08:42:47.381Z,7.40
2023-03-17T08:45:18.386Z,7.80
2023-03-17T08:47:46.266Z,8.53
2023-03-17T08:50:21.330Z,7.33
2023-03-17T08:52:49.021Z,6.87
2023-03-17T08:55:16.301Z,6.73
2023-03-17T08:57:44.752Z,6.67
2023-03-17T09:00:19.330Z,6.00
2023-03-17T09:02:46.539Z,5.73
2023-03-17T09:05:14.033Z,5.87
2023-03-17T09:07:41.655Z,5.90
2023-03-17T09:10:09.602Z,5.77
2023-03-17T09:12:37.381Z,6.67
2023-03-17T09:15:07.766Z,6.73
2023-03-17T09:17:39.514Z,6.53
2023-03-17T09:20:06.802Z,6.10
2023-03-17T09:22:33.616Z,6.33
2023-03-17T09:25:00.880Z,5.97
2023-03-17T09:27:27.650Z,6.33
2023-03-17T09:29:56.599Z,6.23
2023-03-17T09:32:23.441Z,6.37
2023-03-17T09:34:52.678Z,5.83
2023-03-17T09:37:19.431Z,6.00
2023-03-17T09:39:51.334Z,5.57
2023-03-17T09:42:33.452Z,6.53
2023-03-17T09:45:12.331Z,5.93
2023-03-17T09:48:00.938Z,5.53
2023-03-17T09:50:31.418Z,5.10
2023-03-17T09:53:03.351Z,5.00
2023-03-17T09:55:33.731Z,5.00
2023-03-17T09:58:03.686Z,4.97
2023-03-17T10:00:31.245Z,4.93
2023-03-17T10:02:58.397Z,4.80
2023-03-17T10:05:30.529Z,4.90
2023-03-17T10:07:57.447Z,5.10
2023-03-17T10:10:36.641Z,5.30
2023-03-17T10:13:21.990Z,5.10
2023-03-17T10:16:12.330Z,5.40
2023-03-17T10:18:46.383Z,5.10
2023-03-17T10:21:16.305Z,5.00
2023-03-17T10:23:43.368Z,5.73
2023-03-17T10:26:31.466Z,5.77
2023-03-17T10:29:06.041Z,5.13
2023-03-17T10:31:34.778Z,4.80
2023-03-17T10:34:38.212Z,5.23
2023-03-17T10:37:18.283Z,5.37
2023-03-17T10:39:51.802Z,5.60
2023-03-17T10:42:29.657Z,5.87
2023-03-17T10:45:30.130Z,5.47
2023-03-17T10:47:58.132Z,5.10
2023-03-17T10:50:28.817Z,4.80
2023-03-17T10:52:59.416Z,4.80
2023-03-17T10:55:29.426Z,5.07
2023-03-17T10:58:04.912Z,5.07
2023-03-17T11:00:35.355Z,4.47
2023-03-17T11:03:16.747Z,5.30
2023-03-17T11:05:57.627Z,5.00
2023-03-17T11:08:24.574Z,5.17
2023-03-17T11:10:57.430Z,5.53
2023-03-17T11:13:29.517Z,5.60
2023-03-17T11:16:24.709Z,5.50
2023-03-17T11:18:55.804Z,5.83
2023-03-17T11:21:33.978Z,5.40
2023-03-17T11:24:13.214Z,5.67
2023-03-17T11:26:48.876Z,5.20
2023-03-17T11:29:38.285Z,6.33
2023-03-17T11:32:37.079Z,5.87
2023-03-17T11:35:09.176Z,5.43
2023-03-17T11:37:57.203Z,4.87
2023-03-17T11:40:31.974Z,5.40
2023-03-17T11:43:24.193Z,5.50
2023-03-17T11:46:06.170Z,5.80
2023-03-17T11:48:58.776Z,6.27
2023-03-17T11:51:49.324Z,7.13
2023-03-17T11:54:31.563Z,6.40
2023-03-17T11:57:00.121Z,6.60
2023-03-17T11:59:32.314Z,6.43
2023-03-17T12:02:30.268Z,6.30
2023-03-17T12:05:09.839Z,6.30
2023-03-17T12:07:42.154Z,5.60
2023-03-17T12:10:20.424Z,6.33
2023-03-17T12:12:59.485Z,5.87
2023-03-17T12:15:31.761Z,6.57
2023-03-17T12:18:22.257Z,6.70
2023-03-17T12:20:54.343Z,7.23
2023-03-17T12:23:49.806Z,7.37
2023-03-17T12:26:51.956Z,6.83
2023-03-17T12:29:40.103Z,7.60
2023-03-17T12:32:28.021Z,7.33
2023-03-17T12:34:59.751Z,7.70
2023-03-17T12:37:27.700Z,7.53
2023-03-17T12:40:02.831Z,7.07
2023-03-17T12:42:53.635Z,8.03
2023-03-17T12:45:39.206Z,8.00
2023-03-17T12:48:11.897Z,9.07
2023-03-17T12:50:50.455Z,8.17
2023-03-17T12:53:28.451Z,8.40
2023-03-17T12:55:57.939Z,7.90
2023-03-17T12:58:33.522Z,7.03
2023-03-17T13:01:09.312Z,7.17
2023-03-17T13:03:42.906Z,6.43
2023-03-17T13:06:19.251Z,5.80
2023-03-17T13:08:46.109Z,5.67
2023-03-17T13:11:29.666Z,6.33
2023-03-17T13:14:08.828Z,5.93
2023-03-17T13:16:41.181Z,6.17
2023-03-17T13:19:19.281Z,6.20
2023-03-17T13:21:55.966Z,5.60
2023-03-17T13:24:24.526Z,5.60
2023-03-17T13:27:04.700Z,4.80
2023-03-17T13:29:35.141Z,5.80
2023-03-17T13:32:19.471Z,5.30
2023-03-17T13:34:55.963Z,5.67
2023-03-17T13:37:28.682Z,5.70
2023-03-17T13:40:16.436Z,6.13
2023-03-17T13:43:01.379Z,5.87
2023-03-17T13:45:41.673Z,6.73
2023-03-17T13:48:41.026Z,6.47
2023-03-17T13:51:23.932Z,7.23
2023-03-17T13:53:54.246Z,7.03
2023-03-17T13:56:28.038Z,7.17
2023-03-17T13:59:05.283Z,6.43
2023-03-17T14:01:46.947Z,7.70
2023-03-17T14:04:30.008Z,8.50
2023-03-17T14:06:59.722Z,7.73
2023-03-17T14:09:36.359Z,8.07
2023-03-17T14:12:25.139Z,7.80
2023-03-17T14:15:08.267Z,7.60
2023-03-17T14:17:44.909Z,7.20
2023-03-17T14:20:18.591Z,7.00
2023-03-17T14:22:53.662Z,7.13
2023-03-17T14:25:25.525Z,7.33
2023-03-17T14:27:58.484Z,7.57
2023-03-17T14:30:30.579Z,6.93
2023-03-17T14:33:07.128Z,7.37
2023-03-17T14:35:43.149Z,7.23
2023-03-17T14:38:22.913Z,6.63
2023-03-17T14:41:04.542Z,6.50
2023-03-17T14:43:34.128Z,7.03
2023-03-17T14:46:01.985Z,6.80
2023-03-17T14:48:32.953Z,7.07
2023-03-17T14:51:11.405Z,7.40
2023-03-17T14:53:43.166Z,7.80
2023-03-17T14:56:14.672Z,6.97
2023-03-17T14:58:47.902Z,7.67
2023-03-17T15:01:37.731Z,7.30
2023-03-17T15:04:12.353Z,7.23
2023-03-17T15:06:58.392Z,7.33
2023-03-17T15:09:34.262Z,7.30
2023-03-17T15:12:15.780Z,7.23
2023-03-17T15:14:42.606Z,7.60
2023-03-17T15:17:23.187Z,6.97
2023-03-17T15:19:53.665Z,7.50
2023-03-17T15:22:29.433Z,7.17
2023-03-17T15:25:02.397Z,7.37
2023-03-17T15:27:32.164Z,7.27
2023-03-17T15:29:59.103Z,7.43
2023-03-17T15:32:29.247Z,7.40
2023-03-17T15:34:58.911Z,7.50
2023-03-17T15:37:27.429Z,6.43
2023-03-17T15:39:55.776Z,7.10
2023-03-17T15:42:24.826Z,6.50
2023-03-17T15:44:52.140Z,6.53
2023-03-17T15:47:22.611Z,6.57
2023-03-17T15:49:52.047Z,6.90
2023-03-17T15:52:26.812Z,6.70
2023-03-17T15:54:55.414Z,6.63
2023-03-17T15:57:22.333Z,6.53
2023-03-17T15:59:49.090Z,6.43
2023-03-17T16:02:33.154Z,6.37
2023-03-17T16:05:05.042Z,6.27
2023-03-17T16:07:32.338Z,6.30
2023-03-17T16:09:59.081Z,7.13
2023-03-17T16:12:25.904Z,6.50
2023-03-17T16:14:52.639Z,6.73
2023-03-17T16:17:28.981Z,6.47
2023-03-17T16:20:01.104Z,6.77
2023-03-17T16:22:40.553Z,6.30
2023-03-17T16:25:34.002Z,6.87
2023-03-17T16:28:01.869Z,7.27
2023-03-17T16:30:31.091Z,6.90
2023-03-17T16:33:05.099Z,6.30
2023-03-17T16:35:34.065Z,5.93
2023-03-17T16:38:00.877Z,6.63
2023-03-17T16:40:37.216Z,6.37
2023-03-17T16:43:24.569Z,6.30
2023-03-17T16:45:56.200Z,6.27
2023-03-17T16:48:23.129Z,6.60
2023-03-17T16:50:50.376Z,6.20
2023-03-17T16:53:17.612Z,5.87
2023-03-17T16:55:44.640Z,5.97
2023-03-17T16:58:20.259Z,5.63
2023-03-17T17:00:47.614Z,5.93
2023-03-17T17:03:17.212Z,5.90
2023-03-17T17:05:48.382Z,5.73
2023-03-17T17:08:20.031Z,5.43
2023-03-17T17:10:49.257Z,5.77
2023-03-17T17:13:18.329Z,6.43
2023-03-17T17:15:45.215Z,5.97
2023-03-17T17:18:14.969Z,6.10
2023-03-17T17:20:42.328Z,6.13
2023-03-17T17:23:14.519Z,6.20
2023-03-17T17:25:41.479Z,6.80
2023-03-17T17:28:08.729Z,7.17
2023-03-17T17:30:37.975Z,6.83
2023-03-17T17:33:04.896Z,7.17
2023-03-17T17:35:34.420Z,7.73
2023-03-17T17:38:02.029Z,7.23
2023-03-17T17:40:29.489Z,8.00
2023-03-17T17:42:58.851Z,8.97
2023-03-17T17:45:28.137Z,8.27
2023-03-17T17:47:54.888Z,8.07
2023-03-17T17:50:28.901Z,8.13
2023-03-17T17:53:04.864Z,8.20
2023-03-17T17:55:33.473Z,8.27
2023-03-17T17:58:00.629Z,8.07
2023-03-17T18:00:27.632Z,8.63
2023-03-17T18:02:54.451Z,8.60
2023-03-17T18:05:21.243Z,9.20
2023-03-17T18:07:50.421Z,8.07
2023-03-17T18:10:20.672Z,8.23
2023-03-17T18:12:49.703Z,8.53
2023-03-17T18:15:18.745Z,8.50
2023-03-17T18:17:48.044Z,8.43
2023-03-17T18:20:16.355Z,8.63
2023-03-17T18:22:46.358Z,7.43
2023-03-17T18:25:15.302Z,8.03
2023-03-17T18:27:42.255Z,8.67
2023-03-17T18:30:13.268Z,8.47
2023-03-17T18:32:45.376Z,8.73
2023-03-17T18:35:14.140Z,8.40
2023-03-17T18:37:41.186Z,8.90
2023-03-17T18:40:15.251Z,9.10
2023-03-17T18:42:43.924Z,8.60
2023-03-17T18:45:11.700Z,9.03
2023-03-17T18:47:43.150Z,8.90
2023-03-17T18:50:11.839Z,9.50
2023-03-17T18:52:39.730Z,9.67
2023-03-17T18:55:07.312Z,9.03
2023-03-17T18:57:34.317Z,8.77
2023-03-17T19:00:01.093Z,9.67
2023-03-17T19:02:27.850Z,9.73
2023-03-17T19:04:54.745Z,9.47
2023-03-17T19:07:22.430Z,9.57
2023-03-17T19:09:49.312Z,10.00
2023-03-17T19:12:16.128Z,9.70
2023-03-17T19:14:45.553Z,10.53
2023-03-17T19:17:12.301Z,9.53
2023-03-17T19:19:41.528Z,9.80
2023-03-17T19:22:11.107Z,9.67
2023-03-17T19:24:37.978Z,10.43
2023-03-17T19:27:05.266Z,11.10
2023-03-17T19:29:33.350Z,10.70
2023-03-17T19:32:00.209Z,11.33
2023-03-17T19:34:27.373Z,10.83
2023-03-17T19:36:54.302Z,11.87
2023-03-17T19:39:21.560Z,12.47
2023-03-17T19:41:53.329Z,12.13
2023-03-17T19:44:20.069Z,11.47
2023-03-17T19:46:49.066Z,12.30
2023-03-17T19:49:16.530Z,12.13
2023-03-17T19:51:46.997Z,12.70
2023-03-17T19:54:13.806Z,13.00
2023-03-17T19:56:40.666Z,12.77
2023-03-17T19:59:10.247Z,12.90
2023-03-17T20:01:38.577Z,13.23
2023-03-17T20:04:07.090Z,12.53
2023-03-17T20:06:34.721Z,12.57
2023-03-17T20:09:04.196Z,12.03
2023-03-17T20:11:34.133Z,12.03
2023-03-17T20:14:04.170Z,12.43
2023-03-17T20:16:35.016Z,12.00
2023-03-17T20:19:02.283Z,12.57
2023-03-17T20:21:29.121Z,12.43
2023-03-17T20:23:58.283Z,12.37
2023-03-17T20:26:25.386Z,11.97
2023-03-17T20:28:52.156Z,12.30
2023-03-17T20:31:19.385Z,11.57
2023-03-17T20:33:48.827Z,11.27
2023-03-17T20:36:18.178Z,11.83
2023-03-17T20:38:47.328Z,10.90
2023-03-17T20:41:21.036Z,10.77
2023-03-17T20:43:49.977Z,11.40
2023-03-17T20:46:21.467Z,11.57
2023-03-17T20:48:48.562Z,11.57
2023-03-17T20:51:16.816Z,11.60
2023-03-17T20:53:47.725Z,11.40
2023-03-17T20:56:15.687Z,10.67
2023-03-17T20:58:48.510Z,11.07
2023-03-17T21:01:17.220Z,10.40
2023-03-17T21:03:45.015Z,10.77
2023-03-17T21:06:12.039Z,11.57
2023-03-17T21:08:38.860Z,10.60
2023-03-17T21:11:06.741Z,10.93
2023-03-17T21:13:36.226Z,10.30
2023-03-17T21:16:03.100Z,12.87
2023-03-17T21:18:30.130Z,11.60
2023-03-17T21:20:59.047Z,9.90
2023-03-17T21:23:27.122Z,10.60
2023-03-17T21:25:56.001Z,10.93
2023-03-17T21:28:23.066Z,10.03
2023-03-17T21:30:52.099Z,10.57
2023-03-17T21:33:18.903Z,9.80
2023-03-17T21:35:45.777Z,10.40
2023-03-17T21:38:14.743Z,9.57
2023-03-17T21:40:43.017Z,10.37
2023-03-17T21:43:10.797Z,9.67
2023-03-17T21:45:38.054Z,9.40
2023-03-17T21:48:04.962Z,9.83
2023-03-17T21:50:32.551Z,9.63
2023-03-17T21:53:02.029Z,9.57
2023-03-17T21:55:28.836Z,9.30
2023-03-17T21:57:55.783Z,9.07
2023-03-17T22:00:35.956Z,9.87
2023-03-17T22:03:09.608Z,9.47
2023-03-17T22:05:38.920Z,9.20
2023-03-17T22:08:08.598Z,9.17
2023-03-17T22:10:38.213Z,9.73
2023-03-17T22:13:07.518Z,9.37
2023-03-17T22:15:34.315Z,9.47
2023-03-17T22:18:01.121Z,9.37
2023-03-17T22:20:30.160Z,9.37
2023-03-17T22:22:57.103Z,8.77
2023-03-17T22:25:23.884Z,8.57
2023-03-17T22:27:50.681Z,8.97
2023-03-17T22:30:19.018Z,9.37
2023-03-17T22:32:48.274Z,9.63
2023-03-17T22:35:15.785Z,9.17
2023-03-17T22:37:44.901Z,8.40
2023-03-17T22:40:12.022Z,8.23
2023-03-17T22:42:41.525Z,8.63
2023-03-17T22:45:13.076Z,8.83
2023-03-17T22:47:40.087Z,8.50
2023-03-17T22:50:07.151Z,8.73
2023-03-17T22:52:33.895Z,8.50
2023-03-17T22:55:00.929Z,7.93
2023-03-17T22:57:27.678Z,7.77
2023-03-17T22:59:57.087Z,8.07
2023-03-17T23:02:26.314Z,8.30
2023-03-17T23:04:55.353Z,7.87
2023-03-17T23:07:22.204Z,8.00
2023-03-17T23:09:49.023Z,7.50
2023-03-17T23:12:16.270Z,8.67
2023-03-17T23:14:43.819Z,8.10
2023-03-17T23:17:10.854Z,7.83
2023-03-17T23:19:37.674Z,8.13
2023-03-17T23:22:06.573Z,8.03
2023-03-17T23:24:33.411Z,7.13
2023-03-17T23:27:00.148Z,8.43
2023-03-17T23:29:29.238Z,7.73
2023-03-17T23:31:56.131Z,7.83
2023-03-17T23:34:22.952Z,7.93
2023-03-17T23:36:49.696Z,6.93
2023-03-17T23:39:18.840Z,8.17
2023-03-17T23:41:47.740Z,7.93
2023-03-17T23:44:14.558Z,8.13
2023-03-17T23:46:41.312Z,7.80
2023-03-17T23:49:10.400Z,7.20
2023-03-17T23:51:40.849Z,7.33
2023-03-17T23:54:08.420Z,7.43
2023-03-17T23:56:35.573Z,6.77
2023-03-17T23:59:03.780Z,7.30
